Time,TemperatureF,DewpointF,PressureIn,WindDirection,WindDirectionDegrees,WindSpeedMPH,WindSpeedGustMPH,Humidity,HourlyPrecipIn,Conditions,Clouds,dailyrainin,SoftwareType,DateUTC
2013-01-29 00:01:00,48.1,45.3,30.20,WSW,245,0.0,3.0,90,0.00,,---,0.13,VWS V14.00,2013-01-29 05:01:00,
2013-01-29 00:03:00,48.1,45.3,30.20,WSW,245,0.0,0.0,90,0.00,,---,0.00,VWS V14.00,2013-01-29 05:03:00,
2013-01-29 00:05:00,48.0,45.2,30.20,WSW,245,0.0,0.0,90,0.00,,---,0.00,VWS V14.00,2013-01-29 05:05:00,
2013-01-29 00:10:00,47.9,45.1,30.19,WSW,245,0.0,0.0,90,0.00,,---,0.00,VWS V14.00,2013-01-29 05:10:00,
2013-01-29 00:15:00,47.9,45.4,30.19,WSW,245,0.0,0.0,91,0.00,,---,0.00,VWS V14.00,2013-01-29 05:15:00,
2013-01-29 00:20:00,48.0,45.5,30.19,WSW,245,0.0,0.0,91,0.00,,---,0.00,VWS V14.00,2013-01-29 05:20:00,
2013-01-29 00:25:00,48.0,45.5,30.19,WSW,245,0.0,0.0,91,0.00,,---,0.00,VWS V14.00,2013-01-29 05:25:00,
2013-01-29 00:30:00,47.8,44.7,30.18,WSW,245,0.0,0.0,89,0.00,,---,0.00,VWS V14.00,2013-01-29 05:30:00,
2013-01-29 00:35:00,47.6,44.8,30.19,WSW,245,0.0,1.0,90,0.00,,---,0.00,VWS V14.00,2013-01-29 05:35:00,
2013-01-29 00:41:00,47.6,45.1,30.19,WSW,245,0.0,1.0,91,0.00,,---,0.00,VWS V14.00,2013-01-29 05:41:00,
2013-01-29 00:46:00,47.4,44.9,30.19,WSW,245,0.0,2.0,91,0.00,,---,0.00,VWS V14.00,2013-01-29 05:46:00,
2013-01-29 00:51:00,47.2,44.7,30.18,WSW,245,0.0,2.0,91,0.00,,---,0.00,VWS V14.00,2013-01-29 05:51:00,
2013-01-29 00:56:00,47.3,45.1,30.19,WSW,245,0.0,2.0,92,0.00,,---,0.00,VWS V14.00,2013-01-29 05:56:00,
2013-01-29 01:01:00,47.3,45.1,30.18,WSW,245,0.0,2.0,92,0.00,,---,0.00,VWS V14.00,2013-01-29 06:01:00,
2013-01-29 01:06:00,47.2,45.0,30.18,WSW,245,0.0,0.0,92,0.00,,---,0.00,VWS V14.00,2013-01-29 06:06:00,
2013-01-29 01:11:00,47.1,44.9,30.18,WSW,245,0.0,0.0,92,0.00,,---,0.00,VWS V14.00,2013-01-29 06:11:00,
2013-01-29 01:16:00,47.1,44.9,30.18,WSW,245,0.0,0.0,92,0.00,,---,0.00,VWS V14.00,2013-01-29 06:16:00,
2013-01-29 01:21:00,47.2,45.0,30.18,WSW,245,0.0,1.0,92,0.00,,---,0.00,VWS V14.00,2013-01-29 06:21:00,
2013-01-29 01:26:00,47.4,45.2,30.18,WSW,245,1.0,1.0,92,0.00,,---,0.00,VWS V14.00,2013-01-29 06:26:00,
2013-01-29 01:31:00,46.4,43.6,30.18,WSW,245,0.0,1.0,90,0.00,,---,0.00,VWS V14.00,2013-01-29 06:31:00,
2013-01-29 01:36:00,46.1,43.9,30.18,WSW,245,0.0,2.0,92,0.00,,---,0.00,VWS V14.00,2013-01-29 06:36:00,
2013-01-29 01:41:00,46.6,44.7,30.18,WSW,245,0.0,2.0,93,0.00,,---,0.00,VWS V14.00,2013-01-29 06:41:00,
2013-01-29 01:46:00,46.8,44.9,30.18,WSW,245,0.0,2.0,93,0.00,,---,0.00,VWS V14.00,2013-01-29 06:46:00,
2013-01-29 01:51:00,47.0,45.1,30.18,WSW,245,0.0,2.0,93,0.00,,---,0.00,VWS V14.00,2013-01-29 06:51:00,
2013-01-29 01:56:00,47.1,45.5,30.18,WSW,245,0.0,2.0,94,0.00,,---,0.00,VWS V14.00,2013-01-29 06:56:00,
2013-01-29 02:02:00,47.4,45.8,30.18,WSW,245,0.0,0.0,94,0.00,,---,0.00,VWS V14.00,2013-01-29 07:02:00,
2013-01-29 02:07:00,47.2,45.0,30.18,WSW,245,1.0,3.0,92,0.00,,---,0.00,VWS V14.00,2013-01-29 07:07:00,
2013-01-29 02:12:00,46.7,44.2,30.18,WSW,245,2.0,3.0,91,0.00,,---,0.00,VWS V14.00,2013-01-29 07:12:00,
2013-01-29 02:17:00,46.9,45.0,30.18,WSW,245,0.0,3.0,93,0.00,,---,0.00,VWS V14.00,2013-01-29 07:17:00,
2013-01-29 02:22:00,47.3,45.7,30.18,WSW,245,0.0,3.0,94,0.00,,---,0.00,VWS V14.00,2013-01-29 07:22:00,
2013-01-29 02:27:00,47.3,45.4,30.18,WSW,245,0.0,3.0,93,0.00,,---,0.00,VWS V14.00,2013-01-29 07:27:00,
2013-01-29 02:32:00,47.2,45.3,30.18,WSW,245,0.0,0.0,93,0.00,,---,0.00,VWS V14.00,2013-01-29 07:32:00,
2013-01-29 02:37:00,47.4,45.8,30.18,WSW,245,0.0,2.0,94,0.00,,---,0.00,VWS V14.00,2013-01-29 07:37:00,
2013-01-29 02:42:00,47.6,45.7,30.18,WSW,245,0.0,2.0,93,0.00,,---,0.00,VWS V14.00,2013-01-29 07:42:00,
2013-01-29 02:47:00,47.5,45.6,30.18,WSW,245,0.0,3.0,93,0.00,,---,0.00,VWS V14.00,2013-01-29 07:47:00,
2013-01-29 02:52:00,47.8,46.2,30.18,WSW,245,0.0,3.0,94,0.00,,---,0.00,VWS V14.00,2013-01-29 07:52:00,
2013-01-29 02:57:00,47.9,46.0,30.18,WSW,245,0.0,3.0,93,0.00,,---,0.00,VWS V14.00,2013-01-29 07:57:00,
2013-01-29 03:02:00,47.6,45.4,30.17,WSW,245,0.0,2.0,92,0.00,,---,0.00,VWS V14.00,2013-01-29 08:02:00,
2013-01-29 03:07:00,47.4,45.5,30.17,WSW,245,0.0,2.0,93,0.00,,---,0.00,VWS V14.00,2013-01-29 08:07:00,
2013-01-29 03:12:00,47.5,45.6,30.17,WSW,245,0.0,2.0,93,0.00,,---,0.00,VWS V14.00,2013-01-29 08:12:00,
2013-01-29 03:17:00,47.5,45.6,30.17,WSW,245,1.0,2.0,93,0.00,,---,0.00,VWS V14.00,2013-01-29 08:17:00,
2013-01-29 03:22:00,47.5,45.6,30.17,WSW,245,0.0,3.0,93,0.00,,---,0.00,VWS V14.00,2013-01-29 08:22:00,
2013-01-29 03:27:00,47.6,46.0,30.17,WSW,245,0.0,3.0,94,0.00,,---,0.00,VWS V14.00,2013-01-29 08:27:00,
2013-01-29 03:33:00,47.9,46.3,30.16,WSW,245,1.0,2.0,94,0.00,,---,0.00,VWS V14.00,2013-01-29 08:33:00,
2013-01-29 03:38:00,47.9,46.0,30.16,WSW,244,2.0,5.0,93,0.00,,---,0.00,VWS V14.00,2013-01-29 08:38:00,
2013-01-29 03:43:00,46.9,44.7,30.17,WSW,244,0.0,5.0,92,0.00,,---,0.00,VWS V14.00,2013-01-29 08:43:00,
2013-01-29 03:48:00,47.6,46.0,30.17,WSW,246,5.0,5.0,94,0.00,,---,0.00,VWS V14.00,2013-01-29 08:48:00,
2013-01-29 03:53:00,48.2,46.6,30.16,WSW,246,2.0,5.0,94,0.00,,---,0.00,VWS V14.00,2013-01-29 08:53:00,
2013-01-29 03:58:00,48.5,46.6,30.16,WSW,246,4.0,5.0,93,0.00,,---,0.00,VWS V14.00,2013-01-29 08:58:00,
2013-01-29 04:03:00,48.7,46.8,30.16,WSW,246,0.0,2.0,93,0.00,,---,0.00,VWS V14.00,2013-01-29 09:03:00,
2013-01-29 04:08:00,48.8,46.6,30.16,WSW,246,2.0,5.0,92,0.00,,---,0.00,VWS V14.00,2013-01-29 09:08:00,
2013-01-29 04:13:00,48.8,46.6,30.16,WSW,246,2.0,5.0,92,0.00,,---,0.00,VWS V14.00,2013-01-29 09:13:00,
2013-01-29 04:18:00,48.9,46.7,30.16,WSW,246,3.0,5.0,92,0.00,,---,0.00,VWS V14.00,2013-01-29 09:18:00,
2013-01-29 04:23:00,48.8,46.6,30.16,WSW,246,3.0,5.0,92,0.00,,---,0.00,VWS V14.00,2013-01-29 09:23:00,
2013-01-29 04:28:00,48.8,46.6,30.16,WSW,246,3.0,5.0,92,0.00,,---,0.00,VWS V14.00,2013-01-29 09:28:00,
2013-01-29 04:33:00,49.0,46.8,30.16,WSW,246,3.0,4.0,92,0.00,,---,0.00,VWS V14.00,2013-01-29 09:33:00,
2013-01-29 04:38:00,49.1,46.9,30.16,WSW,246,2.0,4.0,92,0.00,,---,0.00,VWS V14.00,2013-01-29 09:38:00,
2013-01-29 04:43:00,49.1,46.9,30.16,WSW,246,2.0,4.0,92,0.00,,---,0.00,VWS V14.00,2013-01-29 09:43:00,
2013-01-29 04:48:00,49.0,46.8,30.17,WSW,246,3.0,5.0,92,0.00,,---,0.00,VWS V14.00,2013-01-29 09:48:00,
2013-01-29 04:53:00,48.9,46.7,30.17,WSW,246,3.0,6.0,92,0.00,,---,0.00,VWS V14.00,2013-01-29 09:53:00,
2013-01-29 04:58:00,48.9,46.7,30.16,WSW,248,3.0,6.0,92,0.00,,---,0.00,VWS V14.00,2013-01-29 09:58:00,
2013-01-29 05:03:00,49.0,46.8,30.16,WSW,247,3.0,4.0,92,0.00,,---,0.00,VWS V14.00,2013-01-29 10:03:00,
2013-01-29 05:08:00,49.1,47.2,30.16,WSW,247,2.0,4.0,93,0.00,,---,0.00,VWS V14.00,2013-01-29 10:08:00,
2013-01-29 05:14:00,49.1,47.2,30.16,WSW,247,1.0,4.0,93,0.00,,---,0.00,VWS V14.00,2013-01-29 10:14:00,
2013-01-29 05:19:00,49.2,47.3,30.16,WSW,247,2.0,4.0,93,0.00,,---,0.00,VWS V14.00,2013-01-29 10:19:00,
2013-01-29 05:24:00,49.2,47.3,30.16,WSW,247,2.0,4.0,93,0.00,,---,0.00,VWS V14.00,2013-01-29 10:24:00,
2013-01-29 05:29:00,49.3,47.1,30.17,WSW,247,1.0,4.0,92,0.00,,---,0.00,VWS V14.00,2013-01-29 10:29:00,
2013-01-29 05:34:00,49.4,47.2,30.17,WSW,247,1.0,3.0,92,0.00,,---,0.00,VWS V14.00,2013-01-29 10:34:00,
2013-01-29 05:39:00,49.4,47.2,30.16,WSW,247,0.0,3.0,92,0.00,,---,0.00,VWS V14.00,2013-01-29 10:39:00,
2013-01-29 05:44:00,49.1,46.9,30.16,WSW,247,0.0,3.0,92,0.00,,---,0.00,VWS V14.00,2013-01-29 10:44:00,
2013-01-29 05:49:00,49.1,46.9,30.16,WSW,248,4.0,5.0,92,0.00,,---,0.00,VWS V14.00,2013-01-29 10:49:00,
2013-01-29 05:54:00,49.0,46.8,30.16,WSW,247,3.0,5.0,92,0.00,,---,0.00,VWS V14.00,2013-01-29 10:54:00,
2013-01-29 05:59:00,49.2,47.0,30.16,WSW,247,2.0,5.0,92,0.00,,---,0.00,VWS V14.00,2013-01-29 10:59:00,
2013-01-29 06:04:00,49.2,47.0,30.16,WSW,247,0.0,0.0,92,0.00,,---,0.00,VWS V14.00,2013-01-29 11:04:00,
2013-01-29 06:09:00,49.1,46.9,30.16,WSW,247,2.0,2.0,92,0.00,,---,0.00,VWS V14.00,2013-01-29 11:09:00,
2013-01-29 06:14:00,49.1,46.9,30.16,WSW,247,0.0,4.0,92,0.00,,---,0.00,VWS V14.00,2013-01-29 11:14:00,
2013-01-29 06:19:00,49.1,46.9,30.16,WSW,247,0.0,4.0,92,0.00,,---,0.00,VWS V14.00,2013-01-29 11:19:00,
2013-01-29 06:25:00,49.2,47.0,30.16,WSW,247,0.0,4.0,92,0.00,,---,0.00,VWS V14.00,2013-01-29 11:25:00,
2013-01-29 06:30:00,49.3,47.1,30.16,WSW,247,0.0,4.0,92,0.00,,---,0.00,VWS V14.00,2013-01-29 11:30:00,
2013-01-29 06:35:00,49.3,47.1,30.16,WSW,247,0.0,0.0,92,0.00,,---,0.00,VWS V14.00,2013-01-29 11:35:00,
2013-01-29 06:40:00,49.2,47.0,30.16,WSW,247,1.0,1.0,92,0.00,,---,0.00,VWS V14.00,2013-01-29 11:40:00,
2013-01-29 06:45:00,49.0,46.5,30.16,WSW,248,2.0,3.0,91,0.00,,---,0.00,VWS V14.00,2013-01-29 11:45:00,
2013-01-29 06:50:00,48.9,46.7,30.16,WSW,248,1.0,3.0,92,0.00,,---,0.00,VWS V14.00,2013-01-29 11:50:00,
2013-01-29 06:55:00,49.0,46.8,30.17,WSW,248,0.0,3.0,92,0.00,,---,0.00,VWS V14.00,2013-01-29 11:55:00,
2013-01-29 07:00:00,49.0,46.8,30.17,WSW,248,0.0,3.0,92,0.00,,---,0.00,VWS V14.00,2013-01-29 12:00:00,
2013-01-29 07:05:00,49.1,46.9,30.17,WSW,248,0.0,2.0,92,0.00,,---,0.00,VWS V14.00,2013-01-29 12:05:00,
2013-01-29 07:10:00,49.1,46.6,30.17,WSW,248,0.0,2.0,91,0.00,,---,0.00,VWS V14.00,2013-01-29 12:10:00,
2013-01-29 07:15:00,48.9,46.7,30.17,WSW,248,2.0,2.0,92,0.00,,---,0.00,VWS V14.00,2013-01-29 12:15:00,
2013-01-29 07:20:00,48.5,46.0,30.17,WSW,248,0.0,2.0,91,0.00,,---,0.00,VWS V14.00,2013-01-29 12:20:00,
2013-01-29 07:25:00,48.1,45.6,30.17,WSW,248,0.0,2.0,91,0.00,,---,0.00,VWS V14.00,2013-01-29 12:25:00,
2013-01-29 07:31:00,48.0,45.8,30.17,WSW,248,1.0,3.0,92,0.00,,---,0.00,VWS V14.00,2013-01-29 12:31:00,
2013-01-29 07:36:00,47.8,45.6,30.18,WSW,248,0.0,2.0,92,0.00,,---,0.00,VWS V14.00,2013-01-29 12:36:00,
2013-01-29 07:41:00,47.1,44.6,30.18,WSW,248,0.0,2.0,91,0.00,,---,0.00,VWS V14.00,2013-01-29 12:41:00,
2013-01-29 07:46:00,46.7,44.5,30.17,WSW,248,1.0,3.0,92,0.00,,---,0.00,VWS V14.00,2013-01-29 12:46:00,
2013-01-29 07:51:00,46.6,44.7,30.18,WSW,248,0.0,3.0,93,0.00,,---,0.00,VWS V14.00,2013-01-29 12:51:00,
2013-01-29 07:56:00,46.7,45.1,30.18,WSW,248,0.0,3.0,94,0.00,,---,0.00,VWS V14.00,2013-01-29 12:56:00,
2013-01-29 08:01:00,46.6,45.0,30.17,WSW,248,0.0,3.0,94,0.00,,---,0.00,VWS V14.00,2013-01-29 13:01:00,
2013-01-29 08:06:00,46.9,45.5,30.17,WSW,248,0.0,0.0,95,0.00,,---,0.00,VWS V14.00,2013-01-29 13:06:00,
2013-01-29 08:11:00,46.7,45.1,30.17,WSW,248,0.0,0.0,94,0.00,,---,0.00,VWS V14.00,2013-01-29 13:11:00,
2013-01-29 08:16:00,47.0,45.7,30.17,WSW,248,2.0,2.0,95,0.00,,---,0.00,VWS V14.00,2013-01-29 13:16:00,
2013-01-29 08:21:00,47.0,45.1,30.17,WSW,248,0.0,2.0,93,0.00,,---,0.00,VWS V14.00,2013-01-29 13:21:00,
2013-01-29 08:26:00,47.0,45.4,30.17,WSW,248,0.0,2.0,94,0.00,,---,0.00,VWS V14.00,2013-01-29 13:26:00,
2013-01-29 08:31:00,47.9,46.5,30.18,WSW,248,1.0,2.0,95,0.00,,---,0.00,VWS V14.00,2013-01-29 13:31:00,
2013-01-29 08:36:00,48.1,46.2,30.18,WSW,246,2.0,5.0,93,0.00,,---,0.00,VWS V14.00,2013-01-29 13:36:00,
2013-01-29 08:41:00,48.4,46.5,30.18,WSW,244,4.0,6.0,93,0.00,,---,0.00,VWS V14.00,2013-01-29 13:41:00,
2013-01-29 08:46:00,48.9,47.0,30.18,WSW,248,4.0,6.0,93,0.00,,---,0.00,VWS V14.00,2013-01-29 13:46:00,
2013-01-29 08:51:00,49.8,47.6,30.18,WSW,252,4.0,7.0,92,0.00,,---,0.00,VWS V14.00,2013-01-29 13:51:00,
2013-01-29 08:56:00,50.1,47.3,30.18,WSW,240,4.0,7.0,90,0.00,,---,0.00,VWS V14.00,2013-01-29 13:56:00,
2013-01-29 09:01:00,50.2,47.4,30.18,WSW,237,3.0,5.0,90,0.00,,---,0.00,VWS V14.00,2013-01-29 14:01:00,
2013-01-29 09:06:00,50.8,48.0,30.18,SW,231,5.0,6.0,90,0.00,,---,0.00,VWS V14.00,2013-01-29 14:06:00,
2013-01-29 09:12:00,51.3,48.2,30.18,WSW,246,4.0,6.0,89,0.00,,---,0.00,VWS V14.00,2013-01-29 14:12:00,
2013-01-29 09:17:00,51.8,48.4,30.18,SW,234,5.0,7.0,88,0.00,,---,0.00,VWS V14.00,2013-01-29 14:17:00,
2013-01-29 09:22:00,52.1,48.4,30.18,SW,231,4.0,7.0,87,0.00,,---,0.00,VWS V14.00,2013-01-29 14:22:00,
2013-01-29 09:27:00,52.6,48.8,30.18,WSW,255,5.0,10.0,87,0.00,,---,0.00,VWS V14.00,2013-01-29 14:27:00,
2013-01-29 09:32:00,52.8,48.7,30.18,WSW,246,4.0,6.0,86,0.00,,---,0.00,VWS V14.00,2013-01-29 14:32:00,
2013-01-29 09:37:00,53.2,49.1,30.18,WSW,242,3.0,8.0,86,0.00,,---,0.00,VWS V14.00,2013-01-29 14:37:00,
2013-01-29 09:42:00,53.7,49.3,30.17,SW,236,6.0,8.0,85,0.00,,---,0.00,VWS V14.00,2013-01-29 14:42:00,
2013-01-29 09:47:00,54.0,49.3,30.18,SW,228,4.0,8.0,84,0.00,,---,0.00,VWS V14.00,2013-01-29 14:47:00,
2013-01-29 09:52:00,54.5,49.8,30.18,SW,225,6.0,8.0,84,0.00,,---,0.00,VWS V14.00,2013-01-29 14:52:00,
2013-01-29 09:57:00,54.8,49.7,30.18,SW,222,6.0,8.0,83,0.00,,---,0.00,VWS V14.00,2013-01-29 14:57:00,
2013-01-29 10:02:00,55.1,49.7,30.18,SW,221,6.0,6.0,82,0.00,,---,0.00,VWS V14.00,2013-01-29 15:02:00,
2013-01-29 10:07:00,55.4,49.7,30.18,SW,223,3.0,8.0,81,0.00,,---,0.00,VWS V14.00,2013-01-29 15:07:00,
2013-01-29 10:12:00,55.8,49.7,30.18,WSW,241,4.0,9.0,80,0.00,,---,0.00,VWS V14.00,2013-01-29 15:12:00,
2013-01-29 10:17:00,56.2,49.8,30.18,SW,232,3.0,9.0,79,0.00,,---,0.00,VWS V14.00,2013-01-29 15:17:00,
2013-01-29 10:22:00,56.6,50.2,30.18,SW,228,4.0,9.0,79,0.00,,---,0.00,VWS V14.00,2013-01-29 15:22:00,
2013-01-29 10:27:00,57.0,50.6,30.18,SW,227,4.0,9.0,79,0.00,,---,0.00,VWS V14.00,2013-01-29 15:27:00,
2013-01-29 10:33:00,57.3,50.2,30.18,SW,221,7.0,9.0,77,0.00,,---,0.00,VWS V14.00,2013-01-29 15:33:00,
2013-01-29 10:38:00,57.2,50.1,30.17,SW,221,4.0,9.0,77,0.00,,---,0.00,VWS V14.00,2013-01-29 15:38:00,
2013-01-29 10:43:00,57.2,49.7,30.18,SW,220,6.0,9.0,76,0.00,,---,0.00,VWS V14.00,2013-01-29 15:43:00,
2013-01-29 10:48:00,57.6,50.1,30.17,SW,220,5.0,9.0,76,0.00,,---,0.00,VWS V14.00,2013-01-29 15:48:00,
2013-01-29 10:53:00,58.1,49.9,30.17,SW,218,4.0,9.0,74,0.00,,---,0.00,VWS V14.00,2013-01-29 15:53:00,
2013-01-29 10:58:00,58.5,50.6,30.17,SW,217,3.0,9.0,75,0.00,,---,0.00,VWS V14.00,2013-01-29 15:58:00,
2013-01-29 11:03:00,59.0,50.4,30.17,SW,216,3.0,6.0,73,0.00,,---,0.00,VWS V14.00,2013-01-29 16:03:00,
2013-01-29 11:08:00,59.3,50.3,30.16,SW,216,1.0,6.0,72,0.00,,---,0.00,VWS V14.00,2013-01-29 16:08:00,
2013-01-29 11:13:00,59.6,51.0,30.16,SW,216,2.0,6.0,73,0.00,,---,0.00,VWS V14.00,2013-01-29 16:13:00,
2013-01-29 11:18:00,60.2,50.8,30.16,SW,215,3.0,7.0,71,0.00,,---,0.00,VWS V14.00,2013-01-29 16:18:00,
2013-01-29 11:23:00,60.2,51.2,30.15,SW,219,5.0,7.0,72,0.00,,---,0.00,VWS V14.00,2013-01-29 16:23:00,
2013-01-29 11:28:00,60.2,50.8,30.15,WSW,244,5.0,10.0,71,0.00,,---,0.00,VWS V14.00,2013-01-29 16:28:00,
2013-01-29 11:33:00,60.5,51.1,30.15,WSW,248,5.0,7.0,71,0.00,,---,0.00,VWS V14.00,2013-01-29 16:33:00,
2013-01-29 11:38:00,60.8,51.0,30.15,WSW,239,4.0,7.0,70,0.00,,---,0.00,VWS V14.00,2013-01-29 16:38:00,
2013-01-29 11:44:00,60.9,51.1,30.14,SW,226,6.0,8.0,70,0.00,,---,0.00,VWS V14.00,2013-01-29 16:44:00,
2013-01-29 11:49:00,60.6,50.8,30.14,SW,226,5.0,9.0,70,0.00,,---,0.00,VWS V14.00,2013-01-29 16:49:00,
2013-01-29 11:54:00,60.6,51.2,30.14,SW,219,5.0,9.0,71,0.00,,---,0.00,VWS V14.00,2013-01-29 16:54:00,
2013-01-29 11:59:00,60.4,51.0,30.14,SW,228,5.0,9.0,71,0.00,,---,0.00,VWS V14.00,2013-01-29 16:59:00,
2013-01-29 12:04:00,61.1,51.6,30.14,SW,230,7.0,9.0,71,0.00,,---,0.00,VWS V14.00,2013-01-29 17:04:00,
2013-01-29 12:09:00,62.0,52.1,30.14,SW,236,7.0,10.0,70,0.00,,---,0.00,VWS V14.00,2013-01-29 17:09:00,
2013-01-29 12:14:00,62.1,51.4,30.14,SW,235,5.0,11.0,68,0.00,,---,0.00,VWS V14.00,2013-01-29 17:14:00,
2013-01-29 12:19:00,62.3,51.6,30.13,SW,236,6.0,11.0,68,0.00,,---,0.00,VWS V14.00,2013-01-29 17:19:00,
2013-01-29 12:24:00,62.6,51.9,30.12,SW,224,9.0,11.0,68,0.00,,---,0.00,VWS V14.00,2013-01-29 17:24:00,
2013-01-29 12:29:00,62.6,51.9,30.12,WSW,252,7.0,11.0,68,0.00,,---,0.00,VWS V14.00,2013-01-29 17:29:00,
2013-01-29 12:34:00,62.3,51.6,30.12,WSW,250,7.0,10.0,68,0.00,,---,0.00,VWS V14.00,2013-01-29 17:34:00,
2013-01-29 12:39:00,62.2,51.1,30.12,SW,230,6.0,10.0,67,0.00,,---,0.00,VWS V14.00,2013-01-29 17:39:00,
2013-01-29 12:44:00,61.7,51.0,30.11,SW,232,7.0,11.0,68,0.00,,---,0.00,VWS V14.00,2013-01-29 17:44:00,
2013-01-29 12:50:00,61.1,51.2,30.12,WSW,243,6.0,11.0,70,0.00,,---,0.00,VWS V14.00,2013-01-29 17:50:00,
2013-01-29 12:55:00,60.9,50.7,30.11,WSW,242,7.0,11.0,69,0.00,,---,0.00,VWS V14.00,2013-01-29 17:55:00,
2013-01-29 13:00:00,61.2,51.0,30.11,WSW,238,8.0,11.0,69,0.00,,---,0.00,VWS V14.00,2013-01-29 18:00:00,
2013-01-29 13:05:00,61.6,51.0,30.10,WSW,253,5.0,7.0,68,0.00,,---,0.00,VWS V14.00,2013-01-29 18:05:00,
2013-01-29 13:10:00,61.6,51.7,30.10,WSW,245,7.0,9.0,70,0.00,,---,0.00,VWS V14.00,2013-01-29 18:10:00,
2013-01-29 13:15:00,62.5,52.2,30.10,WSW,255,6.0,10.0,69,0.00,,---,0.00,VWS V14.00,2013-01-29 18:15:00,
2013-01-29 13:20:00,63.6,52.0,30.10,West,267,3.0,14.0,66,0.00,,---,0.00,VWS V14.00,2013-01-29 18:20:00,
2013-01-29 13:25:00,63.1,52.0,30.09,WSW,239,3.0,14.0,67,0.00,,---,0.00,VWS V14.00,2013-01-29 18:25:00,
2013-01-29 13:30:00,63.0,51.5,30.09,SW,236,8.0,14.0,66,0.00,,---,0.00,VWS V14.00,2013-01-29 18:30:00,
2013-01-29 13:35:00,62.6,51.5,30.09,WSW,238,3.0,7.0,67,0.00,,---,0.00,VWS V14.00,2013-01-29 18:35:00,
2013-01-29 13:40:00,62.6,51.5,30.08,SW,235,2.0,7.0,67,0.00,,---,0.00,VWS V14.00,2013-01-29 18:40:00,
2013-01-29 13:45:00,62.7,52.0,30.08,SW,236,2.0,7.0,68,0.00,,---,0.00,VWS V14.00,2013-01-29 18:45:00,
2013-01-29 13:50:00,63.0,52.3,30.08,WSW,237,3.0,7.0,68,0.00,,---,0.00,VWS V14.00,2013-01-29 18:50:00,
2013-01-29 13:56:00,63.1,52.0,30.08,WSW,252,4.0,7.0,67,0.00,,---,0.00,VWS V14.00,2013-01-29 18:56:00,
2013-01-29 14:01:00,63.0,51.5,30.07,WSW,246,4.0,7.0,66,0.00,,---,0.00,VWS V14.00,2013-01-29 19:01:00,
2013-01-29 14:06:00,63.0,51.9,30.07,WSW,238,7.0,7.0,67,0.00,,---,0.00,VWS V14.00,2013-01-29 19:06:00,
2013-01-29 14:11:00,62.9,51.8,30.07,WSW,244,3.0,7.0,67,0.00,,---,0.00,VWS V14.00,2013-01-29 19:11:00,
2013-01-29 14:16:00,63.0,51.5,30.07,WSW,245,8.0,8.0,66,0.00,,---,0.00,VWS V14.00,2013-01-29 19:16:00,
2013-01-29 14:21:00,63.2,51.7,30.07,WSW,245,4.0,8.0,66,0.00,,---,0.00,VWS V14.00,2013-01-29 19:21:00,
2013-01-29 14:26:00,63.3,51.8,30.07,WSW,254,4.0,8.0,66,0.00,,---,0.00,VWS V14.00,2013-01-29 19:26:00,
2013-01-29 14:31:00,63.4,51.4,30.07,SW,219,5.0,9.0,65,0.00,,---,0.00,VWS V14.00,2013-01-29 19:31:00,
2013-01-29 14:36:00,63.3,51.3,30.07,WSW,238,6.0,8.0,65,0.00,,---,0.00,VWS V14.00,2013-01-29 19:36:00,
2013-01-29 14:41:00,63.8,51.8,30.06,WSW,240,6.0,8.0,65,0.00,,---,0.00,VWS V14.00,2013-01-29 19:41:00,
2013-01-29 14:46:00,64.4,52.0,30.07,WSW,256,8.0,10.0,64,0.00,,---,0.00,VWS V14.00,2013-01-29 19:46:00,
2013-01-29 14:51:00,64.8,52.3,30.07,WSW,250,5.0,12.0,64,0.00,,---,0.00,VWS V14.00,2013-01-29 19:51:00,
2013-01-29 14:56:00,65.3,52.0,30.06,WSW,239,7.0,12.0,62,0.00,,---,0.00,VWS V14.00,2013-01-29 19:56:00,
2013-01-29 15:02:00,65.6,51.8,30.06,WSW,240,7.0,9.0,61,0.00,,---,0.00,VWS V14.00,2013-01-29 20:02:00,
2013-01-29 15:05:00,65.3,52.0,30.06,WSW,245,3.0,9.0,62,0.00,,---,0.00,VWS V14.00,2013-01-29 20:05:00,
2013-01-29 15:10:00,65.8,52.0,30.06,WSW,253,4.0,9.0,61,0.00,,---,0.00,VWS V14.00,2013-01-29 20:10:00,
2013-01-29 15:15:00,66.2,51.9,30.06,WSW,240,2.0,9.0,60,0.00,,---,0.00,VWS V14.00,2013-01-29 20:15:00,
2013-01-29 15:20:00,66.3,51.6,30.05,WSW,254,2.0,9.0,59,0.00,,---,0.00,VWS V14.00,2013-01-29 20:20:00,
2013-01-29 15:25:00,66.6,51.8,30.05,WSW,255,2.0,9.0,59,0.00,,---,0.00,VWS V14.00,2013-01-29 20:25:00,
2013-01-29 15:30:00,66.4,51.7,30.05,West,259,2.0,9.0,59,0.00,,---,0.00,VWS V14.00,2013-01-29 20:30:00,
2013-01-29 15:36:00,66.0,51.3,30.05,WSW,257,1.0,5.0,59,0.00,,---,0.00,VWS V14.00,2013-01-29 20:36:00,
2013-01-29 15:41:00,66.1,51.8,30.04,WSW,257,2.0,5.0,60,0.00,,---,0.00,VWS V14.00,2013-01-29 20:41:00,
2013-01-29 15:46:00,66.5,51.8,30.04,WSW,257,2.0,5.0,59,0.00,,---,0.00,VWS V14.00,2013-01-29 20:46:00,
2013-01-29 15:51:00,66.5,51.3,30.04,WSW,257,1.0,5.0,58,0.00,,---,0.00,VWS V14.00,2013-01-29 20:51:00,
2013-01-29 15:56:00,66.6,51.8,30.03,WSW,257,0.0,5.0,59,0.00,,---,0.00,VWS V14.00,2013-01-29 20:56:00,
2013-01-29 16:01:00,67.1,51.8,30.03,WSW,257,0.0,0.0,58,0.00,,---,0.00,VWS V14.00,2013-01-29 21:01:00,
2013-01-29 16:06:00,67.5,51.3,30.03,WSW,257,0.0,3.0,56,0.00,,---,0.00,VWS V14.00,2013-01-29 21:06:00,
2013-01-29 16:11:00,67.5,51.3,30.03,WSW,257,1.0,3.0,56,0.00,,---,0.00,VWS V14.00,2013-01-29 21:11:00,
2013-01-29 16:16:00,67.3,52.0,30.03,WSW,257,0.0,3.0,58,0.00,,---,0.00,VWS V14.00,2013-01-29 21:16:00,
2013-01-29 16:21:00,67.1,52.3,30.02,WSW,257,0.0,3.0,59,0.00,,---,0.00,VWS V14.00,2013-01-29 21:21:00,
2013-01-29 16:26:00,66.7,51.9,30.02,WSW,257,0.0,3.0,59,0.00,,---,0.00,VWS V14.00,2013-01-29 21:26:00,
2013-01-29 16:32:00,66.7,51.9,30.02,WSW,257,0.0,0.0,59,0.00,,---,0.00,VWS V14.00,2013-01-29 21:32:00,
2013-01-29 16:37:00,66.7,51.9,30.02,WSW,257,0.0,0.0,59,0.00,,---,0.00,VWS V14.00,2013-01-29 21:37:00,
2013-01-29 16:42:00,66.6,51.8,30.01,WSW,257,0.0,0.0,59,0.00,,---,0.00,VWS V14.00,2013-01-29 21:42:00,
2013-01-29 16:47:00,66.5,51.8,30.01,WSW,257,1.0,2.0,59,0.00,,---,0.00,VWS V14.00,2013-01-29 21:47:00,
2013-01-29 16:52:00,66.0,50.8,30.01,WSW,257,0.0,2.0,58,0.00,,---,0.00,VWS V14.00,2013-01-29 21:52:00,
2013-01-29 16:57:00,65.5,49.9,30.01,WSW,257,0.0,2.0,57,0.00,,---,0.00,VWS V14.00,2013-01-29 21:57:00,
2013-01-29 17:02:00,65.3,50.6,30.01,West,259,2.0,4.0,59,0.00,,---,0.00,VWS V14.00,2013-01-29 22:02:00,
2013-01-29 17:07:00,64.8,50.2,30.01,West,259,1.0,4.0,59,0.00,,---,0.00,VWS V14.00,2013-01-29 22:07:00,
2013-01-29 17:12:00,64.0,51.2,30.01,West,259,0.0,4.0,63,0.00,,---,0.00,VWS V14.00,2013-01-29 22:12:00,
2013-01-29 17:17:00,63.0,50.7,30.01,West,259,1.0,4.0,64,0.00,,---,0.00,VWS V14.00,2013-01-29 22:17:00,
2013-01-29 17:22:00,62.2,50.3,30.01,West,259,1.0,4.0,65,0.00,,---,0.00,VWS V14.00,2013-01-29 22:22:00,
2013-01-29 17:27:00,61.8,49.9,30.01,WSW,258,1.0,4.0,65,0.00,,---,0.00,VWS V14.00,2013-01-29 22:27:00,
2013-01-29 17:32:00,61.0,50.0,30.01,WSW,258,0.0,2.0,67,0.00,,---,0.00,VWS V14.00,2013-01-29 22:32:00,
2013-01-29 17:37:00,60.4,49.8,30.01,WSW,258,1.0,2.0,68,0.00,,---,0.00,VWS V14.00,2013-01-29 22:37:00,
2013-01-29 17:42:00,59.9,49.3,30.01,West,259,1.0,3.0,68,0.00,,---,0.00,VWS V14.00,2013-01-29 22:42:00,
2013-01-29 17:48:00,59.4,49.2,30.01,WSW,257,0.0,4.0,69,0.00,,---,0.00,VWS V14.00,2013-01-29 22:48:00,
2013-01-29 17:53:00,58.1,48.8,30.01,West,263,4.0,4.0,71,0.00,,---,0.00,VWS V14.00,2013-01-29 22:53:00,
2013-01-29 17:58:00,58.5,48.0,30.02,West,260,5.0,8.0,68,0.00,,---,0.00,VWS V14.00,2013-01-29 22:58:00,
2013-01-29 18:03:00,61.4,47.8,30.02,WSW,253,9.0,13.0,61,0.00,,---,0.00,VWS V14.00,2013-01-29 23:03:00,
2013-01-29 18:08:00,62.0,47.5,30.01,WSW,253,10.0,15.0,59,0.00,,---,0.00,VWS V14.00,2013-01-29 23:08:00,
2013-01-29 18:13:00,62.2,47.3,30.02,WSW,242,13.0,16.0,58,0.00,,---,0.00,VWS V14.00,2013-01-29 23:13:00,
2013-01-29 18:18:00,62.0,47.1,30.02,SW,231,5.0,16.0,58,0.00,,---,0.00,VWS V14.00,2013-01-29 23:18:00,
2013-01-29 18:23:00,61.4,47.0,30.03,SSW,207,6.0,16.0,59,0.00,,---,0.00,VWS V14.00,2013-01-29 23:23:00,
2013-01-29 18:28:00,61.0,47.0,30.03,SW,236,5.0,16.0,60,0.00,,---,0.00,VWS V14.00,2013-01-29 23:28:00,
2013-01-29 18:33:00,60.3,46.8,30.02,SW,226,3.0,5.0,61,0.00,,---,0.00,VWS V14.00,2013-01-29 23:33:00,
2013-01-29 18:38:00,59.8,46.3,30.02,SW,226,2.0,5.0,61,0.00,,---,0.00,VWS V14.00,2013-01-29 23:38:00,
2013-01-29 18:43:00,59.2,46.2,30.01,SW,226,0.0,5.0,62,0.00,,---,0.00,VWS V14.00,2013-01-29 23:43:00,
2013-01-29 18:49:00,58.8,46.2,30.01,SW,226,0.0,5.0,63,0.00,,---,0.00,VWS V14.00,2013-01-29 23:49:00,
2013-01-29 18:54:00,58.3,46.2,30.01,SW,226,0.0,5.0,64,0.00,,---,0.00,VWS V14.00,2013-01-29 23:54:00,
2013-01-29 18:59:00,57.7,46.0,30.01,SW,226,2.0,5.0,65,0.00,,---,0.00,VWS V14.00,2013-01-29 23:59:00,
2013-01-29 19:04:00,57.1,46.3,30.01,SW,230,1.0,3.0,67,0.00,,---,0.00,VWS V14.00,2013-01-30 00:04:00,
2013-01-29 19:09:00,57.2,46.4,30.01,West,263,0.0,6.0,67,0.00,,---,0.00,VWS V14.00,2013-01-30 00:09:00,
2013-01-29 19:14:00,56.9,46.5,30.01,West,264,1.0,6.0,68,0.00,,---,0.00,VWS V14.00,2013-01-30 00:14:00,
2013-01-29 19:19:00,56.6,46.2,30.01,West,264,1.0,6.0,68,0.00,,---,0.00,VWS V14.00,2013-01-30 00:19:00,
2013-01-29 19:24:00,56.3,46.3,30.01,West,264,1.0,6.0,69,0.00,,---,0.00,VWS V14.00,2013-01-30 00:24:00,
2013-01-29 19:29:00,56.0,46.4,30.01,West,264,1.0,6.0,70,0.00,,---,0.00,VWS V14.00,2013-01-30 00:29:00,
2013-01-29 19:34:00,55.5,46.3,30.01,West,264,0.0,0.0,71,0.00,,---,0.00,VWS V14.00,2013-01-30 00:34:00,
2013-01-29 19:39:00,55.0,46.2,30.01,West,264,0.0,1.0,72,0.00,,---,0.00,VWS V14.00,2013-01-30 00:39:00,
2013-01-29 19:44:00,54.7,45.9,30.01,West,264,0.0,1.0,72,0.00,,---,0.00,VWS V14.00,2013-01-30 00:44:00,
2013-01-29 19:49:00,54.3,45.8,30.02,West,264,0.0,1.0,73,0.00,,---,0.00,VWS V14.00,2013-01-30 00:49:00,
2013-01-29 19:55:00,53.9,45.8,30.02,West,264,1.0,2.0,74,0.00,,---,0.00,VWS V14.00,2013-01-30 00:55:00,
2013-01-29 20:00:00,53.8,46.1,30.02,West,264,0.0,3.0,75,0.00,,---,0.00,VWS V14.00,2013-01-30 01:00:00,
2013-01-29 20:05:00,53.5,46.1,30.02,West,264,0.0,1.0,76,0.00,,---,0.00,VWS V14.00,2013-01-30 01:05:00,
2013-01-29 20:10:00,53.3,46.3,30.01,West,263,2.0,4.0,77,0.00,,---,0.00,VWS V14.00,2013-01-30 01:10:00,
2013-01-29 20:15:00,53.3,46.3,30.02,West,263,0.0,4.0,77,0.00,,---,0.00,VWS V14.00,2013-01-30 01:15:00,
2013-01-29 20:20:00,53.6,46.9,30.02,West,263,2.0,4.0,78,0.00,,---,0.00,VWS V14.00,2013-01-30 01:20:00,
2013-01-29 20:25:00,53.5,46.8,30.02,West,263,1.0,4.0,78,0.00,,---,0.00,VWS V14.00,2013-01-30 01:25:00,
2013-01-29 20:30:00,53.3,47.0,30.02,West,260,4.0,4.0,79,0.00,,---,0.00,VWS V14.00,2013-01-30 01:30:00,
2013-01-29 20:35:00,53.3,47.3,30.02,West,260,1.0,3.0,80,0.00,,---,0.00,VWS V14.00,2013-01-30 01:35:00,
2013-01-29 20:40:00,53.3,47.0,30.02,West,259,1.0,4.0,79,0.00,,---,0.00,VWS V14.00,2013-01-30 01:40:00,
2013-01-29 20:45:00,53.5,47.2,30.02,West,259,1.0,4.0,79,0.00,,---,0.00,VWS V14.00,2013-01-30 01:45:00,
2013-01-29 20:50:00,53.6,47.9,30.02,West,259,0.0,4.0,81,0.00,,---,0.00,VWS V14.00,2013-01-30 01:50:00,
2013-01-29 20:55:00,54.0,48.3,30.02,West,259,0.0,4.0,81,0.00,,---,0.00,VWS V14.00,2013-01-30 01:55:00,
2013-01-29 21:00:00,53.5,47.2,30.03,West,259,0.0,4.0,79,0.00,,---,0.00,VWS V14.00,2013-01-30 02:00:00,
2013-01-29 21:05:00,52.6,46.6,30.03,West,259,3.0,4.0,80,0.00,,---,0.00,VWS V14.00,2013-01-30 02:05:00,
2013-01-29 21:10:00,52.1,46.5,30.03,West,259,3.0,6.0,81,0.00,,---,0.00,VWS V14.00,2013-01-30 02:10:00,
2013-01-29 21:15:00,51.8,46.2,30.02,West,259,2.0,6.0,81,0.00,,---,0.00,VWS V14.00,2013-01-30 02:15:00,
2013-01-29 21:20:00,51.2,45.9,30.02,West,259,3.0,6.0,82,0.00,,---,0.00,VWS V14.00,2013-01-30 02:20:00,
2013-01-29 21:26:00,51.3,47.0,30.03,West,259,1.0,6.0,85,0.00,,---,0.00,VWS V14.00,2013-01-30 02:26:00,
2013-01-29 21:31:00,51.7,47.0,30.03,West,259,4.0,6.0,84,0.00,,---,0.00,VWS V14.00,2013-01-30 02:31:00,
2013-01-29 21:36:00,51.9,47.2,30.03,West,259,3.0,4.0,84,0.00,,---,0.00,VWS V14.00,2013-01-30 02:36:00,
2013-01-29 21:41:00,52.3,47.6,30.02,West,259,1.0,4.0,84,0.00,,---,0.00,VWS V14.00,2013-01-30 02:41:00,
2013-01-29 21:46:00,52.3,47.6,30.02,West,260,2.0,4.0,84,0.00,,---,0.00,VWS V14.00,2013-01-30 02:46:00,
2013-01-29 21:51:00,52.7,48.3,30.02,West,260,2.0,4.0,85,0.00,,---,0.00,VWS V14.00,2013-01-30 02:51:00,
2013-01-29 21:56:00,53.4,49.0,30.02,West,260,0.0,4.0,85,0.00,,---,0.00,VWS V14.00,2013-01-30 02:56:00,
2013-01-29 22:01:00,53.1,47.1,30.02,WSW,257,0.0,4.0,80,0.00,,---,0.00,VWS V14.00,2013-01-30 03:01:00,
2013-01-29 22:06:00,52.5,47.2,30.01,WSW,257,1.0,3.0,82,0.00,,---,0.00,VWS V14.00,2013-01-30 03:06:00,
2013-01-29 22:11:00,52.2,47.8,30.01,WSW,257,0.0,3.0,85,0.00,,---,0.00,VWS V14.00,2013-01-30 03:11:00,
2013-01-29 22:16:00,52.1,47.7,30.00,WSW,257,1.0,3.0,85,0.00,,---,0.00,VWS V14.00,2013-01-30 03:16:00,
2013-01-29 22:21:00,52.0,48.3,30.00,WSW,257,0.0,3.0,87,0.00,,---,0.00,VWS V14.00,2013-01-30 03:21:00,
2013-01-29 22:26:00,52.2,48.8,29.99,WSW,257,0.0,3.0,88,0.00,,---,0.00,VWS V14.00,2013-01-30 03:26:00,
2013-01-29 22:31:00,52.5,48.4,29.99,WSW,257,0.0,0.0,86,0.00,,---,0.00,VWS V14.00,2013-01-30 03:31:00,
2013-01-29 22:36:00,52.1,48.4,30.00,WSW,257,0.0,3.0,87,0.00,,---,0.00,VWS V14.00,2013-01-30 03:36:00,
2013-01-29 22:41:00,51.8,48.4,30.00,WSW,257,0.0,3.0,88,0.00,,---,0.00,VWS V14.00,2013-01-30 03:41:00,
2013-01-29 22:46:00,52.2,49.7,29.99,WSW,257,0.0,3.0,91,0.00,,---,0.00,VWS V14.00,2013-01-30 03:46:00,
2013-01-29 22:51:00,52.5,49.7,29.99,WSW,257,0.0,3.0,90,0.00,,---,0.00,VWS V14.00,2013-01-30 03:51:00,
2013-01-29 22:57:00,52.5,49.7,29.99,WSW,257,0.0,3.0,90,0.00,,---,0.00,VWS V14.00,2013-01-30 03:57:00,
2013-01-29 23:02:00,52.2,49.4,29.99,WSW,257,0.0,1.0,90,0.00,,---,0.00,VWS V14.00,2013-01-30 04:02:00,
2013-01-29 23:07:00,52.5,50.0,29.99,WSW,257,1.0,3.0,91,0.00,,---,0.00,VWS V14.00,2013-01-30 04:07:00,
2013-01-29 23:12:00,52.4,49.6,29.99,WSW,257,2.0,3.0,90,0.00,,---,0.00,VWS V14.00,2013-01-30 04:12:00,
2013-01-29 23:17:00,52.9,50.6,29.99,WSW,258,2.0,4.0,92,0.00,,---,0.00,VWS V14.00,2013-01-30 04:17:00,
2013-01-29 23:22:00,54.4,52.1,29.98,WSW,257,4.0,7.0,92,0.00,,---,0.00,VWS V14.00,2013-01-30 04:22:00,
2013-01-29 23:27:00,55.3,52.4,29.98,West,279,0.0,7.0,90,0.00,,---,0.00,VWS V14.00,2013-01-30 04:27:00,
2013-01-29 23:32:00,55.5,52.3,29.98,West,280,0.0,0.0,89,0.00,,---,0.00,VWS V14.00,2013-01-30 04:32:00,
2013-01-29 23:37:00,55.5,52.3,29.98,West,280,0.0,0.0,89,0.00,,---,0.00,VWS V14.00,2013-01-30 04:37:00,
2013-01-29 23:42:00,55.6,52.4,29.98,West,280,0.0,0.0,89,0.00,,---,0.00,VWS V14.00,2013-01-30 04:42:00,
2013-01-29 23:47:00,55.5,52.0,29.97,West,280,0.0,2.0,88,0.00,,---,0.00,VWS V14.00,2013-01-30 04:47:00,
2013-01-29 23:52:00,55.0,51.8,29.97,West,280,1.0,2.0,89,0.00,,---,0.00,VWS V14.00,2013-01-30 04:52:00,
2013-01-29 23:57:00,55.0,52.1,29.97,West,280,0.0,2.0,90,0.00,,---,0.00,VWS V14.00,2013-01-30 04:57:00,